Time;durP1;ratioP1;P1;durP2;ratioP2;P2;SDS_P1;SDS_P2;PMS_P1;PMS_P2;Temp;Humidity;BMP_temperature;BMP_pressure;BME280_temperature;BME280_humidity;BME280_pressure;Samples;Min_cycle;Max_cycle;Signal;HPM_P1;HPM_P2
2021/09/10 00:01:44;;;;;;;4.95;1.92;;;;;;;;;;4463111;32;20606;-53
2021/09/10 00:04:09;;;;;;;10.43;2.08;;;;;;;;;;4463080;32;20200;-52
2021/09/10 00:06:34;;;;;;;3.55;2.03;;;;;;;;;;4451847;32;20223;-52
2021/09/10 00:09:00;;;;;;;6.93;1.90;;;;;;;;;;4460278;32;20263;-52
2021/09/10 00:11:26;;;;;;;5.15;2.58;;;;;;;;;;4462335;32;20262;-52
2021/09/10 00:13:52;;;;;;;5.30;1.48;;;;;;;;;;4453223;32;20637;-52
2021/09/10 00:16:17;;;;;;;3.70;2.10;;;;;;;;;;4462985;32;20244;-52
2021/09/10 00:18:43;;;;;;;1.52;1.02;;;;;;;;;;4451795;32;20208;-53
2021/09/10 00:21:08;;;;;;;2.15;1.10;;;;;;;;;;4458955;32;20245;-51
2021/09/10 00:23:34;;;;;;;2.35;1.30;;;;;;;;;;4466439;32;20384;-53
2021/09/10 00:25:59;;;;;;;1.40;1.10;;;;;;;;;;4466213;32;20238;-53
2021/09/10 00:28:25;;;;;;;2.40;1.45;;;;;;;;;;4459236;32;20243;-53
2021/09/10 00:30:51;;;;;;;2.70;1.55;;;;;;;;;;4460032;32;20936;-53
2021/09/10 00:33:17;;;;;;;2.67;1.25;;;;;;;;;;4459825;32;20287;-53
2021/09/10 00:35:43;;;;;;;2.35;1.12;;;;;;;;;;4455645;32;20244;-52
2021/09/10 00:38:08;;;;;;;3.22;1.85;;;;;;;;;;4459999;32;20690;-53
2021/09/10 00:40:34;;;;;;;1.90;1.10;;;;;;;;;;4460127;32;20318;-52
2021/09/10 00:42:59;;;;;;;2.70;1.73;;;;;;;;;;4456518;32;20275;-52
2021/09/10 00:45:25;;;;;;;2.25;1.37;;;;;;;;;;4462326;32;20254;-52
2021/09/10 00:47:51;;;;;;;2.42;1.35;;;;;;;;;;4466055;32;20267;-52
2021/09/10 00:50:16;;;;;;;2.83;1.12;;;;;;;;;;4461811;32;20276;-52
2021/09/10 00:52:42;;;;;;;2.83;1.58;;;;;;;;;;4455500;32;20287;-54
2021/09/10 00:55:07;;;;;;;3.25;1.60;;;;;;;;;;4465537;32;20247;-52
2021/09/10 00:57:34;;;;;;;4.18;1.55;;;;;;;;;;4465183;32;20348;-53
2021/09/10 00:59:59;;;;;;;2.72;1.50;;;;;;;;;;4465748;32;20244;-52
2021/09/10 01:02:25;;;;;;;2.72;1.75;;;;;;;;;;4457344;32;20822;-53
2021/09/10 01:04:51;;;;;;;2.80;1.67;;;;;;;;;;4452242;32;20312;-53
2021/09/10 01:07:20;;;;;;;5.70;1.60;;;;;;;;;;4451101;32;20260;-52
2021/09/10 01:09:46;;;;;;;3.22;2.30;;;;;;;;;;4455335;32;20260;-53
2021/09/10 01:12:12;;;;;;;2.08;1.73;;;;;;;;;;4457798;32;20345;-54
2021/09/10 01:14:37;;;;;;;2.03;1.30;;;;;;;;;;4453656;32;20224;-53
2021/09/10 01:17:03;;;;;;;2.00;1.10;;;;;;;;;;4455975;32;20300;-52
2021/09/10 01:19:30;;;;;;;2.78;1.45;;;;;;;;;;4465141;32;20243;-53
2021/09/10 01:21:59;;;;;;;2.30;1.20;;;;;;;;;;4464163;32;20756;-52
2021/09/10 01:24:31;;;;;;;2.80;1.67;;;;;;;;;;4464625;32;20443;-53
2021/09/10 01:26:58;;;;;;;7.32;1.52;;;;;;;;;;4465357;32;20299;-52
2021/09/10 01:29:24;;;;;;;1.52;1.20;;;;;;;;;;4462789;32;20208;-53
2021/09/10 01:31:49;;;;;;;4.53;2.00;;;;;;;;;;4464302;32;20686;-53
2021/09/10 01:34:15;;;;;;;3.90;1.60;;;;;;;;;;4464021;32;20279;-53
2021/09/10 01:36:41;;;;;;;2.80;1.23;;;;;;;;;;4465029;32;20252;-53
2021/09/10 01:39:06;;;;;;;1.90;1.52;;;;;;;;;;4461762;32;20244;-53
2021/09/10 01:41:32;;;;;;;1.92;1.25;;;;;;;;;;4455735;32;20364;-54
2021/09/10 01:43:57;;;;;;;1.67;1.20;;;;;;;;;;4461107;32;20551;-53
2021/09/10 01:46:22;;;;;;;4.35;1.70;;;;;;;;;;4456812;32;20327;-52
2021/09/10 01:48:50;;;;;;;3.53;1.37;;;;;;;;;;4464162;32;20621;-52
2021/09/10 01:51:16;;;;;;;5.57;1.40;;;;;;;;;;4461926;32;20759;-52
2021/09/10 01:53:42;;;;;;;2.15;1.60;;;;;;;;;;4451684;32;20224;-52
2021/09/10 01:56:08;;;;;;;1.40;1.20;;;;;;;;;;4452019;32;20279;-51
2021/09/10 01:58:33;;;;;;;4.32;1.20;;;;;;;;;;4462431;32;20414;-51
2021/09/10 02:00:59;;;;;;;7.25;1.60;;;;;;;;;;4464882;32;20282;-51
2021/09/10 02:03:25;;;;;;;6.95;2.35;;;;;;;;;;4464141;32;20303;-51
2021/09/10 02:05:50;;;;;;;2.22;1.33;;;;;;;;;;4464197;32;20236;-51
2021/09/10 02:08:16;;;;;;;3.62;1.73;;;;;;;;;;4460621;32;20224;-52
2021/09/10 02:10:41;;;;;;;2.60;1.73;;;;;;;;;;4464212;32;20293;-51
2021/09/10 02:13:07;;;;;;;4.10;1.58;;;;;;;;;;4464311;32;20266;-51
2021/09/10 02:15:32;;;;;;;2.37;1.70;;;;;;;;;;4463810;32;20236;-53
2021/09/10 02:17:58;;;;;;;1.55;1.33;;;;;;;;;;4452119;32;20799;-51
2021/09/10 02:20:23;;;;;;;4.43;1.60;;;;;;;;;;4461449;32;20684;-51
2021/09/10 02:22:49;;;;;;;1.95;1.75;;;;;;;;;;4453409;32;20739;-51
2021/09/10 02:25:14;;;;;;;2.17;1.42;;;;;;;;;;4456219;32;20247;-51
2021/09/10 02:27:40;;;;;;;4.35;2.03;;;;;;;;;;4457959;32;20235;-51
2021/09/10 02:30:06;;;;;;;4.15;1.37;;;;;;;;;;4463990;32;20553;-51
2021/09/10 02:32:32;;;;;;;2.83;1.73;;;;;;;;;;4453909;32;20694;-51
2021/09/10 02:34:57;;;;;;;3.25;2.00;;;;;;;;;;4463049;32;20244;-51
2021/09/10 02:37:23;;;;;;;2.95;1.83;;;;;;;;;;4454120;32;20364;-51
2021/09/10 02:39:49;;;;;;;5.10;1.77;;;;;;;;;;4459281;32;20208;-50
2021/09/10 02:42:15;;;;;;;3.53;1.75;;;;;;;;;;4450774;32;20365;-52
2021/09/10 02:44:40;;;;;;;3.12;1.73;;;;;;;;;;4458428;32;20648;-51
2021/09/10 02:47:06;;;;;;;2.22;1.67;;;;;;;;;;4461588;32;20258;-52
2021/09/10 02:49:31;;;;;;;3.25;2.20;;;;;;;;;;4461341;32;20228;-52
2021/09/10 02:51:57;;;;;;;3.17;1.90;;;;;;;;;;4451982;32;20674;-52
2021/09/10 02:54:22;;;;;;;2.22;1.65;;;;;;;;;;4462308;32;20280;-52
2021/09/10 02:56:48;;;;;;;4.03;1.52;;;;;;;;;;4457691;32;20247;-52
2021/09/10 02:59:13;;;;;;;2.22;1.40;;;;;;;;;;4454230;32;20302;-52
2021/09/10 03:01:43;;;;;;;3.37;1.60;;;;;;;;;;4463700;32;20244;-52
2021/09/10 03:04:09;;;;;;;4.43;1.90;;;;;;;;;;4453854;32;20633;-52
2021/09/10 03:06:35;;;;;;;4.07;1.40;;;;;;;;;;4462535;32;20357;-52
2021/09/10 03:09:00;;;;;;;3.70;1.33;;;;;;;;;;4461274;32;20311;-52
2021/09/10 03:11:25;;;;;;;1.60;1.35;;;;;;;;;;4455102;32;20232;-52
2021/09/10 03:13:52;;;;;;;2.08;1.40;;;;;;;;;;4459164;32;20240;-52
2021/09/10 03:16:18;;;;;;;5.55;1.80;;;;;;;;;;4450221;32;20266;-52
2021/09/10 03:18:43;;;;;;;2.15;1.67;;;;;;;;;;4461415;32;20369;-53
2021/09/10 03:21:09;;;;;;;2.00;1.40;;;;;;;;;;4463611;32;20231;-52
2021/09/10 03:23:34;;;;;;;4.00;1.60;;;;;;;;;;4460688;32;20380;-54
2021/09/10 03:26:00;;;;;;;1.40;1.30;;;;;;;;;;4451507;32;20734;-52
2021/09/10 03:28:25;;;;;;;2.08;1.80;;;;;;;;;;4460037;32;20216;-52
2021/09/10 03:30:51;;;;;;;5.40;1.87;;;;;;;;;;4449694;32;20342;-52
2021/09/10 03:33:16;;;;;;;2.80;1.90;;;;;;;;;;4459082;32;20311;-52
2021/09/10 03:35:42;;;;;;;2.97;1.83;;;;;;;;;;4450376;32;20339;-52
2021/09/10 03:38:07;;;;;;;3.92;2.05;;;;;;;;;;4450158;32;20668;-55
2021/09/10 03:40:35;;;;;;;7.25;1.60;;;;;;;;;;4458390;32;20249;-53
2021/09/10 03:43:05;;;;;;;2.25;1.65;;;;;;;;;;4456466;32;20568;-53
2021/09/10 03:45:30;;;;;;;2.85;1.67;;;;;;;;;;4455166;32;20228;-51
2021/09/10 03:47:56;;;;;;;3.10;2.15;;;;;;;;;;4461599;32;20212;-51
2021/09/10 03:50:21;;;;;;;4.20;2.10;;;;;;;;;;4462438;32;20254;-51
2021/09/10 03:52:47;;;;;;;4.12;1.77;;;;;;;;;;4452765;32;20762;-51
2021/09/10 03:55:15;;;;;;;3.22;1.87;;;;;;;;;;4454296;32;20240;-52
2021/09/10 03:57:40;;;;;;;3.15;2.08;;;;;;;;;;4458353;32;20240;-53
2021/09/10 04:00:07;;;;;;;5.32;2.08;;;;;;;;;;4459115;32;20212;-51
2021/09/10 04:02:33;;;;;;;3.78;1.80;;;;;;;;;;4459951;32;20281;-52
2021/09/10 04:04:58;;;;;;;7.82;3.37;;;;;;;;;;4461093;32;20379;-52
2021/09/10 04:07:24;;;;;;;5.85;2.08;;;;;;;;;;4459930;32;21490;-53
2021/09/10 04:09:49;;;;;;;2.78;1.77;;;;;;;;;;4459828;32;20203;-52
2021/09/10 04:12:14;;;;;;;3.92;1.60;;;;;;;;;;4449923;32;20321;-52
2021/09/10 04:14:40;;;;;;;6.30;2.22;;;;;;;;;;4462843;32;20295;-52
2021/09/10 04:17:05;;;;;;;2.95;1.65;;;;;;;;;;4464128;32;20255;-52
2021/09/10 04:19:31;;;;;;;3.33;1.85;;;;;;;;;;4464378;32;20239;-52
2021/09/10 04:21:56;;;;;;;2.17;1.48;;;;;;;;;;4465565;32;20216;-52
2021/09/10 04:24:22;;;;;;;2.05;1.65;;;;;;;;;;4464512;32;20209;-52
2021/09/10 04:26:47;;;;;;;2.28;1.52;;;;;;;;;;4457497;32;20212;-52
2021/09/10 04:29:13;;;;;;;3.33;1.80;;;;;;;;;;4457096;32;20282;-52
2021/09/10 04:31:38;;;;;;;3.17;1.90;;;;;;;;;;4456573;32;20270;-53
2021/09/10 04:34:03;;;;;;;8.65;2.10;;;;;;;;;;4455725;32;20239;-52
2021/09/10 04:36:29;;;;;;;7.15;3.03;;;;;;;;;;4455881;32;20262;-52
2021/09/10 04:38:54;;;;;;;4.43;2.10;;;;;;;;;;4460055;32;20344;-53
2021/09/10 04:41:20;;;;;;;2.62;1.60;;;;;;;;;;4457136;32;20759;-52
2021/09/10 04:43:45;;;;;;;11.60;2.65;;;;;;;;;;4461002;32;20243;-51
2021/09/10 04:46:11;;;;;;;17.90;3.87;;;;;;;;;;4457414;32;20315;-52
2021/09/10 04:48:36;;;;;;;10.35;3.97;;;;;;;;;;4457048;32;20243;-52
2021/09/10 04:51:01;;;;;;;10.90;3.12;;;;;;;;;;4459327;32;20348;-52
2021/09/10 04:53:27;;;;;;;6.85;3.28;;;;;;;;;;4458640;32;20382;-53
2021/09/10 04:55:52;;;;;;;9.07;3.15;;;;;;;;;;4459125;32;20678;-53
2021/09/10 04:58:18;;;;;;;5.60;3.15;;;;;;;;;;4460073;32;20370;-52
2021/09/10 05:00:43;;;;;;;6.85;3.08;;;;;;;;;;4460332;32;20224;-53
2021/09/10 05:03:09;;;;;;;4.20;2.87;;;;;;;;;;4462083;32;20216;-53
2021/09/10 05:05:34;;;;;;;5.25;2.80;;;;;;;;;;4463844;32;20319;-53
2021/09/10 05:08:00;;;;;;;16.62;3.75;;;;;;;;;;4463189;32;20290;-54
2021/09/10 05:10:25;;;;;;;3.90;2.25;;;;;;;;;;4463660;32;20307;-53
2021/09/10 05:12:51;;;;;;;5.78;3.15;;;;;;;;;;4464043;32;20703;-53
2021/09/10 05:15:16;;;;;;;5.35;3.08;;;;;;;;;;4463691;32;20362;-53
2021/09/10 05:17:41;;;;;;;8.93;3.65;;;;;;;;;;4465454;32;20244;-52
2021/09/10 05:20:08;;;;;;;43.75;8.63;;;;;;;;;;4463910;32;20262;-53
2021/09/10 05:22:34;;;;;;;12.55;4.60;;;;;;;;;;4463288;32;20347;-53
2021/09/10 05:25:01;;;;;;;19.87;5.50;;;;;;;;;;4449912;32;20235;-53
2021/09/10 05:27:27;;;;;;;21.73;5.90;;;;;;;;;;4450260;32;20328;-53
2021/09/10 05:29:52;;;;;;;7.30;2.92;;;;;;;;;;4450258;32;20221;-53
2021/09/10 05:32:17;;;;;;;3.78;2.33;;;;;;;;;;4453961;32;20707;-53
2021/09/10 05:34:43;;;;;;;4.53;2.83;;;;;;;;;;4463354;32;20232;-52
2021/09/10 05:37:08;;;;;;;8.95;3.05;;;;;;;;;;4465032;32;20558;-52
2021/09/10 05:39:34;;;;;;;11.25;2.90;;;;;;;;;;4463605;32;20318;-53
2021/09/10 05:41:59;;;;;;;6.03;3.05;;;;;;;;;;4462404;32;20248;-53
2021/09/10 05:44:25;;;;;;;5.18;2.17;;;;;;;;;;4461513;32;20216;-52
2021/09/10 05:46:50;;;;;;;10.25;2.30;;;;;;;;;;4461145;32;20231;-53
2021/09/10 05:49:16;;;;;;;8.82;2.55;;;;;;;;;;4461487;32;20211;-53
2021/09/10 05:51:41;;;;;;;21.50;3.08;;;;;;;;;;4462021;32;20665;-52
2021/09/10 05:54:07;;;;;;;8.20;3.00;;;;;;;;;;4463109;32;20208;-52
2021/09/10 05:56:32;;;;;;;6.95;2.62;;;;;;;;;;4463768;32;20572;-52
2021/09/10 05:58:58;;;;;;;6.32;3.20;;;;;;;;;;4465188;32;20197;-52
2021/09/10 06:01:24;;;;;;;7.55;4.12;;;;;;;;;;4463702;32;20233;-52
2021/09/10 06:03:49;;;;;;;3.80;3.03;;;;;;;;;;4463768;32;20315;-52
2021/09/10 06:06:15;;;;;;;5.85;3.33;;;;;;;;;;4464384;32;20278;-52
2021/09/10 06:08:41;;;;;;;8.35;5.00;;;;;;;;;;4464782;32;20204;-52
2021/09/10 06:11:07;;;;;;;5.57;3.65;;;;;;;;;;4464967;32;20292;-52
2021/09/10 06:13:32;;;;;;;16.52;4.62;;;;;;;;;;4464800;32;20664;-52
2021/09/10 06:15:58;;;;;;;6.90;4.57;;;;;;;;;;4464689;32;20625;-52
2021/09/10 06:18:23;;;;;;;6.37;3.40;;;;;;;;;;4464591;32;20676;-52
2021/09/10 06:20:49;;;;;;;2.50;1.80;;;;;;;;;;4453049;32;20292;-52
2021/09/10 06:23:14;;;;;;;4.50;2.20;;;;;;;;;;4448961;32;20794;-52
2021/09/10 06:25:40;;;;;;;2.97;2.08;;;;;;;;;;4447702;32;20264;-52
2021/09/10 06:28:06;;;;;;;2.90;1.62;;;;;;;;;;4449054;32;20651;-53
2021/09/10 06:30:31;;;;;;;5.62;2.15;;;;;;;;;;4448913;32;20326;-54
2021/09/10 06:32:57;;;;;;;12.00;2.67;;;;;;;;;;4457137;32;20292;-52
2021/09/10 06:35:23;;;;;;;3.35;2.15;;;;;;;;;;4464473;32;20256;-52
2021/09/10 06:37:49;;;;;;;4.35;1.90;;;;;;;;;;4464395;32;20278;-53
2021/09/10 06:40:14;;;;;;;7.45;2.03;;;;;;;;;;4464229;32;20247;-52
2021/09/10 06:42:41;;;;;;;7.72;2.22;;;;;;;;;;4464404;32;20318;-52
2021/09/10 06:45:08;;;;;;;4.55;2.25;;;;;;;;;;4463925;32;20200;-52
2021/09/10 06:47:33;;;;;;;8.18;1.83;;;;;;;;;;4463781;32;20220;-52
2021/09/10 06:49:59;;;;;;;5.05;1.90;;;;;;;;;;4464566;32;20235;-53
2021/09/10 06:52:24;;;;;;;3.20;1.95;;;;;;;;;;4464282;32;20287;-52
2021/09/10 06:54:50;;;;;;;2.60;1.80;;;;;;;;;;4464450;32;20200;-52
2021/09/10 06:57:15;;;;;;;4.72;2.37;;;;;;;;;;4464050;32;20724;-54
2021/09/10 06:59:41;;;;;;;3.75;1.85;;;;;;;;;;4464075;32;20580;-52
2021/09/10 07:02:06;;;;;;;5.90;2.47;;;;;;;;;;4465185;32;21108;-52
2021/09/10 07:04:32;;;;;;;3.15;1.52;;;;;;;;;;4464213;32;20661;-52
2021/09/10 07:06:57;;;;;;;2.17;1.70;;;;;;;;;;4464336;32;20656;-52
2021/09/10 07:09:23;;;;;;;3.22;2.10;;;;;;;;;;4463693;32;20328;-52
2021/09/10 07:11:48;;;;;;;6.95;1.95;;;;;;;;;;4464084;32;20842;-53
2021/09/10 07:14:16;;;;;;;2.62;1.95;;;;;;;;;;4463772;32;20354;-52
2021/09/10 07:16:41;;;;;;;3.90;2.10;;;;;;;;;;4455093;32;20250;-52
2021/09/10 07:19:07;;;;;;;2.53;1.75;;;;;;;;;;4448390;32;20213;-51
2021/09/10 07:21:32;;;;;;;4.50;1.87;;;;;;;;;;4448683;32;20216;-52
2021/09/10 07:23:58;;;;;;;4.82;2.17;;;;;;;;;;4448283;32;20232;-52
2021/09/10 07:26:25;;;;;;;2.50;1.65;;;;;;;;;;4448090;32;20244;-53
2021/09/10 07:28:50;;;;;;;5.78;2.03;;;;;;;;;;4448101;32;20217;-52
2021/09/10 07:31:16;;;;;;;17.55;2.28;;;;;;;;;;4447778;32;20236;-53
2021/09/10 07:33:43;;;;;;;1.92;1.37;;;;;;;;;;4461009;32;20277;-52
2021/09/10 07:36:09;;;;;;;4.22;2.12;;;;;;;;;;4463870;32;20315;-53
2021/09/10 07:38:35;;;;;;;2.72;1.67;;;;;;;;;;4463320;32;20403;-55
2021/09/10 07:41:02;;;;;;;7.75;1.67;;;;;;;;;;4463986;32;20228;-52
2021/09/10 07:43:28;;;;;;;6.32;2.05;;;;;;;;;;4464051;32;20290;-52
2021/09/10 07:45:54;;;;;;;4.47;1.70;;;;;;;;;;4463540;32;20228;-53
2021/09/10 07:48:19;;;;;;;2.85;1.42;;;;;;;;;;4464153;32;20314;-52
2021/09/10 07:50:44;;;;;;;3.35;2.00;;;;;;;;;;4464228;32;20322;-52
2021/09/10 07:53:10;;;;;;;7.18;1.58;;;;;;;;;;4463623;32;20297;-53
2021/09/10 07:55:37;;;;;;;4.47;2.08;;;;;;;;;;4463874;32;20236;-52
2021/09/10 07:58:03;;;;;;;4.15;1.77;;;;;;;;;;4463675;32;20193;-52
2021/09/10 08:00:28;;;;;;;5.25;1.75;;;;;;;;;;4463637;32;20312;-52
2021/09/10 08:02:54;;;;;;;3.75;2.10;;;;;;;;;;4463873;32;20317;-52
2021/09/10 08:05:20;;;;;;;5.53;2.12;;;;;;;;;;4463549;32;20274;-52
2021/09/10 08:07:45;;;;;;;4.40;1.70;;;;;;;;;;4462289;32;20303;-54
2021/09/10 08:10:14;;;;;;;4.53;1.85;;;;;;;;;;4463095;32;20617;-52
2021/09/10 08:12:44;;;;;;;2.67;1.58;;;;;;;;;;4456237;32;20248;-52
2021/09/10 08:15:10;;;;;;;4.85;1.80;;;;;;;;;;4447828;32;20235;-53
2021/09/10 08:17:36;;;;;;;7.30;2.12;;;;;;;;;;4447843;32;20600;-52
2021/09/10 08:20:02;;;;;;;3.17;1.75;;;;;;;;;;4448002;32;20197;-53
2021/09/10 08:22:28;;;;;;;2.85;2.10;;;;;;;;;;4447622;32;20359;-53
2021/09/10 08:24:54;;;;;;;3.37;1.85;;;;;;;;;;4447943;32;20212;-53
2021/09/10 08:27:20;;;;;;;2.58;1.45;;;;;;;;;;4448229;32;20294;-53
2021/09/10 08:29:45;;;;;;;4.35;1.98;;;;;;;;;;4447923;32;20197;-53
2021/09/10 08:32:11;;;;;;;8.23;1.55;;;;;;;;;;4449652;32;20347;-53
2021/09/10 08:34:36;;;;;;;3.37;1.70;;;;;;;;;;4463121;32;20660;-53
2021/09/10 08:37:01;;;;;;;3.30;1.58;;;;;;;;;;4462334;32;20720;-53
2021/09/10 08:39:27;;;;;;;2.10;1.48;;;;;;;;;;4463035;32;20701;-53
2021/09/10 08:41:52;;;;;;;2.60;1.77;;;;;;;;;;4463638;32;20278;-54
2021/09/10 08:44:18;;;;;;;5.72;2.10;;;;;;;;;;4465928;32;20231;-53
2021/09/10 08:46:45;;;;;;;3.45;2.15;;;;;;;;;;4455045;32;20270;-53
2021/09/10 08:49:13;;;;;;;7.68;2.10;;;;;;;;;;4450390;32;20196;-52
2021/09/10 08:51:39;;;;;;;5.12;2.10;;;;;;;;;;4450429;32;20280;-53
2021/09/10 08:54:04;;;;;;;12.27;1.50;;;;;;;;;;4450166;32;20631;-52
2021/09/10 08:56:30;;;;;;;3.55;1.48;;;;;;;;;;4448783;32;20253;-53
2021/09/10 08:59:17;;;;;;;7.78;1.80;;;;;;;;;;4450244;32;20239;-53
2021/09/10 09:02:01;;;;;;;4.03;1.65;;;;;;;;;;4450624;32;20220;-53
2021/09/10 09:04:35;;;;;;;8.35;2.03;;;;;;;;;;4450466;32;20212;-52
2021/09/10 09:07:03;;;;;;;5.10;2.28;;;;;;;;;;4450589;32;20542;-53
2021/09/10 09:09:35;;;;;;;2.62;1.37;;;;;;;;;;4449912;32;20259;-53
2021/09/10 09:12:30;;;;;;;2.97;1.42;;;;;;;;;;4450439;32;20278;-53
2021/09/10 09:14:58;;;;;;;2.17;1.50;;;;;;;;;;4450249;32;20712;-53
2021/09/10 09:17:38;;;;;;;3.67;1.70;;;;;;;;;;4450410;32;20604;-53
2021/09/10 09:20:16;;;;;;;2.37;1.80;;;;;;;;;;4448887;32;20622;-52
2021/09/10 09:23:08;;;;;;;3.97;1.55;;;;;;;;;;4449978;32;20196;-53
2021/09/10 09:25:40;;;;;;;3.12;1.73;;;;;;;;;;4449002;32;20320;-53
2021/09/10 09:28:18;;;;;;;6.35;2.10;;;;;;;;;;4449979;32;20223;-53
2021/09/10 09:30:45;;;;;;;5.55;1.87;;;;;;;;;;4450092;32;20601;-53
2021/09/10 09:33:13;;;;;;;3.10;1.60;;;;;;;;;;4459323;32;20252;-53
2021/09/10 09:35:39;;;;;;;3.70;1.87;;;;;;;;;;4465318;32;20578;-52
2021/09/10 09:38:21;;;;;;;2.72;1.55;;;;;;;;;;4465320;32;20358;-52
2021/09/10 09:40:52;;;;;;;4.50;1.98;;;;;;;;;;4465463;32;20228;-53
2021/09/10 09:43:23;;;;;;;6.53;2.00;;;;;;;;;;4465687;32;20193;-53
2021/09/10 09:45:51;;;;;;;4.65;2.28;;;;;;;;;;4465040;32;20271;-52
2021/09/10 09:48:19;;;;;;;2.78;1.70;;;;;;;;;;4465184;32;20212;-53
2021/09/10 09:50:47;;;;;;;1.98;1.23;;;;;;;;;;4465529;32;20299;-53
2021/09/10 09:53:13;;;;;;;4.12;1.62;;;;;;;;;;4464771;32;20204;-54
2021/09/10 09:55:40;;;;;;;4.55;1.85;;;;;;;;;;4463728;32;20224;-53
2021/09/10 09:58:06;;;;;;;3.97;1.70;;;;;;;;;;4465073;32;20546;-53
2021/09/10 10:00:36;;;;;;;6.00;1.67;;;;;;;;;;4465023;32;20258;-54
2021/09/10 10:03:03;;;;;;;6.15;1.62;;;;;;;;;;4464966;32;20668;-52
2021/09/10 10:05:30;;;;;;;9.40;1.62;;;;;;;;;;4463717;32;20270;-53
2021/09/10 10:08:03;;;;;;;3.42;1.27;;;;;;;;;;4465038;32;20204;-53
2021/09/10 10:10:37;;;;;;;7.55;1.70;;;;;;;;;;4463780;32;20227;-53
2021/09/10 10:13:05;;;;;;;5.50;1.65;;;;;;;;;;4463781;32;20284;-53
2021/09/10 10:15:31;;;;;;;4.32;1.80;;;;;;;;;;4464765;32;20671;-53
2021/09/10 10:17:58;;;;;;;5.28;1.73;;;;;;;;;;4465182;32;20263;-53
2021/09/10 10:20:45;;;;;;;3.50;1.35;;;;;;;;;;4464794;32;20601;-53
2021/09/10 10:23:44;;;;;;;2.40;1.52;;;;;;;;;;4464656;32;20229;-53
2021/09/10 10:26:18;;;;;;;2.40;1.17;;;;;;;;;;4464772;32;20272;-53
2021/09/10 10:28:45;;;;;;;4.37;1.70;;;;;;;;;;4465048;32;20213;-52
2021/09/10 10:31:11;;;;;;;2.22;1.67;;;;;;;;;;4464646;32;20258;-52
2021/09/10 10:33:47;;;;;;;2.85;1.17;;;;;;;;;;4464835;32;20220;-53
2021/09/10 10:36:29;;;;;;;1.85;1.27;;;;;;;;;;4465046;32;20274;-52
2021/09/10 10:39:15;;;;;;;6.25;1.65;;;;;;;;;;4464834;32;20345;-53
2021/09/10 10:41:49;;;;;;;1.58;1.23;;;;;;;;;;4465149;32;20224;-53
2021/09/10 10:44:29;;;;;;;2.00;1.40;;;;;;;;;;4464499;32;20463;-52
2021/09/10 10:47:18;;;;;;;2.92;1.20;;;;;;;;;;4453792;32;20299;-52
2021/09/10 10:49:49;;;;;;;3.33;1.65;;;;;;;;;;4449140;32;20308;-53
2021/09/10 10:52:26;;;;;;;2.12;1.20;;;;;;;;;;4448774;32;20272;-53
2021/09/10 10:55:21;;;;;;;3.00;1.35;;;;;;;;;;4448659;32;20212;-53
2021/09/10 10:57:47;;;;;;;5.47;2.00;;;;;;;;;;4441908;32;20233;-53
2021/09/10 11:00:28;;;;;;;4.18;2.10;;;;;;;;;;4448688;32;20315;-53
2021/09/10 11:03:12;;;;;;;5.50;1.83;;;;;;;;;;4447731;32;20255;-52
2021/09/10 11:05:38;;;;;;;1.30;0.82;;;;;;;;;;4448090;32;20216;-53
2021/09/10 11:08:03;;;;;;;2.15;1.33;;;;;;;;;;4448447;32;20672;-52
2021/09/10 11:10:29;;;;;;;8.98;1.75;;;;;;;;;;4448485;32;20611;-53
2021/09/10 11:12:55;;;;;;;2.45;1.20;;;;;;;;;;4449074;32;20319;-53
2021/09/10 11:15:35;;;;;;;1.40;1.15;;;;;;;;;;4448521;32;20296;-53
2021/09/10 11:18:03;;;;;;;1.65;1.08;;;;;;;;;;4448326;32;20226;-53
2021/09/10 11:20:30;;;;;;;9.48;1.67;;;;;;;;;;4448485;32;20293;-53
2021/09/10 11:22:56;;;;;;;3.55;1.42;;;;;;;;;;4448823;32;20303;-54
2021/09/10 11:25:22;;;;;;;2.87;1.30;;;;;;;;;;4448310;32;20672;-53
2021/09/10 11:27:47;;;;;;;2.62;1.33;;;;;;;;;;4448549;32;20350;-53
2021/09/10 11:30:14;;;;;;;2.33;1.37;;;;;;;;;;4448291;32;20620;-54
2021/09/10 11:32:40;;;;;;;3.40;1.35;;;;;;;;;;4454748;32;20636;-53
2021/09/10 11:35:23;;;;;;;3.75;1.27;;;;;;;;;;4464068;32;20286;-53
2021/09/10 11:37:55;;;;;;;1.60;1.15;;;;;;;;;;4464031;32;20204;-54
2021/09/10 11:40:36;;;;;;;2.97;1.52;;;;;;;;;;4463716;32;20268;-54
2021/09/10 11:43:03;;;;;;;2.17;1.37;;;;;;;;;;4463942;32;20192;-53
2021/09/10 11:45:31;;;;;;;3.25;1.40;;;;;;;;;;4463363;32;20749;-54
2021/09/10 11:47:57;;;;;;;2.62;1.35;;;;;;;;;;4464004;32;20240;-54
2021/09/10 11:50:22;;;;;;;3.12;1.40;;;;;;;;;;4463637;32;20648;-53
2021/09/10 11:52:48;;;;;;;7.55;1.60;;;;;;;;;;4463935;32;20294;-54
2021/09/10 11:55:18;;;;;;;2.50;1.10;;;;;;;;;;4462604;32;20719;-54
2021/09/10 11:57:45;;;;;;;3.15;1.40;;;;;;;;;;4456251;32;20209;-55
2021/09/10 12:00:23;;;;;;;2.55;1.23;;;;;;;;;;4448078;32;20568;-54
2021/09/10 12:02:56;;;;;;;2.87;1.48;;;;;;;;;;4448021;32;20571;-54
2021/09/10 12:05:21;;;;;;;5.87;2.10;;;;;;;;;;4448046;32;20287;-53
2021/09/10 12:07:50;;;;;;;2.67;1.45;;;;;;;;;;4448215;32;20271;-55
2021/09/10 12:10:33;;;;;;;3.87;1.67;;;;;;;;;;4448339;32;20319;-54
2021/09/10 12:13:11;;;;;;;3.03;1.50;;;;;;;;;;4448292;32;20367;-54
2021/09/10 12:15:37;;;;;;;1.60;1.12;;;;;;;;;;4448342;32;20267;-54
2021/09/10 12:18:13;;;;;;;2.62;1.45;;;;;;;;;;4451113;32;20283;-54
2021/09/10 12:20:40;;;;;;;0.88;0.80;;;;;;;;;;4451083;32;20220;-53
2021/09/10 12:23:06;;;;;;;2.87;1.70;;;;;;;;;;4449598;32;20708;-54
2021/09/10 12:25:34;;;;;;;6.50;1.27;;;;;;;;;;4449462;32;20243;-55
2021/09/10 12:28:08;;;;;;;1.37;1.20;;;;;;;;;;4451010;32;20300;-54
2021/09/10 12:30:39;;;;;;;5.47;1.60;;;;;;;;;;4450761;32;20224;-53
2021/09/10 12:33:04;;;;;;;2.25;1.40;;;;;;;;;;4460107;32;20240;-53
2021/09/10 12:35:32;;;;;;;7.37;1.50;;;;;;;;;;4465972;32;20255;-53
2021/09/10 12:38:07;;;;;;;3.97;1.52;;;;;;;;;;4466303;32;20564;-54
2021/09/10 12:40:35;;;;;;;2.25;1.37;;;;;;;;;;4466385;32;20231;-54
2021/09/10 12:43:02;;;;;;;7.18;1.62;;;;;;;;;;4466112;32;20246;-53
2021/09/10 12:45:27;;;;;;;4.10;1.95;;;;;;;;;;4464534;32;20247;-53
2021/09/10 12:47:53;;;;;;;6.82;1.70;;;;;;;;;;4449256;32;20728;-54
2021/09/10 12:50:19;;;;;;;5.45;1.70;;;;;;;;;;4448831;32;20252;-53
2021/09/10 12:52:45;;;;;;;2.95;1.55;;;;;;;;;;4450382;32;20327;-55
2021/09/10 12:55:11;;;;;;;2.92;1.58;;;;;;;;;;4450092;32;20334;-52
2021/09/10 12:57:37;;;;;;;11.23;1.52;;;;;;;;;;4450074;32;20301;-54
2021/09/10 13:00:04;;;;;;;2.42;1.17;;;;;;;;;;4450108;32;20243;-53
2021/09/10 13:02:30;;;;;;;4.05;1.50;;;;;;;;;;4450337;32;20262;-53
2021/09/10 13:04:55;;;;;;;3.12;1.50;;;;;;;;;;4450372;32;20200;-53
2021/09/10 13:07:21;;;;;;;1.70;1.20;;;;;;;;;;4448770;32;20326;-53
2021/09/10 13:09:46;;;;;;;2.22;1.40;;;;;;;;;;4450414;32;20225;-53
2021/09/10 13:12:12;;;;;;;1.85;1.42;;;;;;;;;;4449689;32;20307;-55
2021/09/10 13:14:37;;;;;;;3.92;1.20;;;;;;;;;;4450019;32;20192;-53
2021/09/10 13:17:03;;;;;;;5.95;1.73;;;;;;;;;;4450209;32;20229;-53
2021/09/10 13:19:28;;;;;;;9.63;4.28;;;;;;;;;;4449759;32;20197;-53
2021/09/10 13:21:54;;;;;;;3.17;1.65;;;;;;;;;;4450030;32;20242;-53
2021/09/10 13:24:20;;;;;;;1.85;1.20;;;;;;;;;;4449766;32;20685;-53
2021/09/10 13:26:47;;;;;;;5.90;1.83;;;;;;;;;;4450200;32;20315;-53
2021/09/10 13:29:12;;;;;;;5.18;1.55;;;;;;;;;;4449352;32;20231;-53
2021/09/10 13:31:38;;;;;;;1.33;1.23;;;;;;;;;;4450185;32;20240;-53
2021/09/10 13:34:03;;;;;;;5.10;1.70;;;;;;;;;;4465210;32;20656;-54
2021/09/10 13:36:29;;;;;;;4.85;1.73;;;;;;;;;;4464975;32;20228;-52
2021/09/10 13:38:54;;;;;;;3.47;1.30;;;;;;;;;;4465755;32;20322;-53
2021/09/10 13:41:20;;;;;;;2.20;1.40;;;;;;;;;;4465197;32;20377;-53
2021/09/10 13:43:45;;;;;;;4.82;1.65;;;;;;;;;;4465641;32;20195;-53
2021/09/10 13:46:11;;;;;;;4.53;1.87;;;;;;;;;;4464734;32;20601;-52
2021/09/10 13:48:36;;;;;;;3.67;1.70;;;;;;;;;;4464034;32;20251;-52
2021/09/10 13:51:02;;;;;;;6.50;1.50;;;;;;;;;;4452368;32;20245;-53
2021/09/10 13:53:27;;;;;;;3.90;1.40;;;;;;;;;;4449384;32;20288;-52
2021/09/10 13:55:53;;;;;;;3.00;1.70;;;;;;;;;;4449793;32;20224;-53
2021/09/10 13:58:18;;;;;;;4.50;2.08;;;;;;;;;;4449298;32;20294;-53
2021/09/10 14:00:44;;;;;;;7.20;2.05;;;;;;;;;;4449932;32;20291;-53
2021/09/10 14:03:09;;;;;;;4.78;1.65;;;;;;;;;;4449731;32;20220;-53
2021/09/10 14:05:35;;;;;;;7.00;1.70;;;;;;;;;;4449341;32;20323;-53
2021/09/10 14:08:00;;;;;;;3.65;2.33;;;;;;;;;;4448424;32;20299;-53
2021/09/10 14:10:26;;;;;;;6.22;1.40;;;;;;;;;;4449834;32;20654;-53
2021/09/10 14:12:51;;;;;;;3.15;1.83;;;;;;;;;;4449899;32;20298;-53
2021/09/10 14:15:17;;;;;;;5.72;1.62;;;;;;;;;;4449733;32;20278;-53
2021/09/10 14:17:43;;;;;;;3.60;1.27;;;;;;;;;;4449551;32;20351;-54
2021/09/10 14:20:09;;;;;;;4.68;1.20;;;;;;;;;;4447901;32;20638;-52
2021/09/10 14:22:34;;;;;;;3.87;1.77;;;;;;;;;;4449464;32;20633;-54
2021/09/10 14:25:00;;;;;;;2.72;1.75;;;;;;;;;;4449690;32;20223;-52
2021/09/10 14:27:25;;;;;;;2.20;1.42;;;;;;;;;;4449280;32;20336;-52
2021/09/10 14:29:51;;;;;;;4.18;2.70;;;;;;;;;;4449174;32;20223;-55
2021/09/10 14:32:17;;;;;;;7.60;1.95;;;;;;;;;;4453523;32;20654;-53
2021/09/10 14:34:42;;;;;;;8.55;1.92;;;;;;;;;;4464808;32;20216;-53
2021/09/10 14:37:08;;;;;;;2.97;1.23;;;;;;;;;;4464979;32;20228;-53
2021/09/10 14:39:33;;;;;;;2.37;1.48;;;;;;;;;;4464766;32;20222;-53
2021/09/10 14:41:59;;;;;;;2.97;1.52;;;;;;;;;;4464849;32;20263;-53
2021/09/10 14:44:25;;;;;;;3.50;1.52;;;;;;;;;;4464771;32;20895;-54